Little Valley, Nevada Weather observations

Data are for 10 minute period ending at time listed.
 Day   Time    Ave.   Ave.  Ave.  Vector   Max.   Total    Solar   
  of    of     Air    Rel.  Wind   Wind    Wind  Precip.   Rad.    
Year   Day     Temp.  Hum.  Speed  Dir.    Gust                    
2016   (PST)    F      %     mph   deg.    mph     in.     W/m2    
------------------------------------------------------------------- 
 181   14:00   81.0    14    8.0   283     18.0   16.64     987  
 181   15:00   81.0    17    7.0   254     22.0   16.64     890  
 181   16:00   81.0    19    8.0   279     30.0   16.64     749  
 181   17:00   79.0    18    8.0   270     19.0   16.64     571  
 181   18:00   78.0    18    6.0   263     19.0   16.64     375  
 181   19:00   72.0    18    7.0   170     25.0   16.64      53  
 181   20:00   71.0    17    8.0   268     21.0   16.64       9  
 181   21:00   70.0    15   10.0   262     21.0   16.64       0  
 181   22:00   69.0    13    7.0   268     19.0   16.64       0  
 181   23:00   60.0    23    2.0   150     16.0   16.64       0  
 182    0:00   50.0    42    2.0   197      5.0   16.64       0  
 182    1:00   47.0    52    0.0   188      5.0   16.64       0  
 182    2:00   44.0    57    1.0   167      4.0   16.64       0  
 182    3:00   40.0    66    0.0   249      4.0   16.64       0  
 182    4:00   39.0    68    0.0   287      1.0   16.64       0  
 182    5:00   37.0    72    0.0   245      2.0   16.64       0  
 182    6:00   43.0    67    0.0    57      2.0   16.64      41  
 182    7:00   55.0    52    0.0    98      2.0   16.64     213  
 182    8:00   71.0    35    1.0    76      4.0   16.64     413  
 182    9:00   77.0    23    1.0   261      4.0   16.64     612  
 182   10:00   76.0    22    5.0    55     10.0   16.64     789  
 182   11:00   79.0    19    4.0   136     10.0   16.64     920  
 182   12:00   81.0    16    5.0    43     14.0   16.64    1006  
 182   13:00   82.0    14    6.0   280     14.0   16.64    1034  

Return to Little Valley, Nevada graphs page.


Western Regional Climate Center,wrcc@dri.edu